createdAt,value
2022-09-22T00:01:53.013Z,11.67
2022-09-22T00:04:23.753Z,11.67
2022-09-22T00:06:56.390Z,11.59
2022-09-22T00:09:24.177Z,11.56
2022-09-22T00:11:55.768Z,11.53
2022-09-22T00:14:54.046Z,11.52
2022-09-22T00:17:27.855Z,11.46
2022-09-22T00:19:56.654Z,11.47
2022-09-22T00:22:24.770Z,11.56
2022-09-22T00:24:52.882Z,11.55
2022-09-22T00:27:25.599Z,11.54
2022-09-22T00:30:04.585Z,11.60
2022-09-22T00:32:46.046Z,11.62
2022-09-22T00:35:17.612Z,11.63
2022-09-22T00:37:45.660Z,11.60
2022-09-22T00:40:21.782Z,11.63
2022-09-22T00:43:14.150Z,11.59
2022-09-22T00:45:46.998Z,11.50
2022-09-22T00:48:23.266Z,11.45
2022-09-22T00:50:54.938Z,11.37
2022-09-22T00:53:27.069Z,11.35
2022-09-22T00:57:15.833Z,11.16
2022-09-22T00:59:54.797Z,11.00
2022-09-22T01:02:34.896Z,10.79
2022-09-22T01:05:06.795Z,10.72
2022-09-22T01:07:37.221Z,10.74
2022-09-22T01:10:05.604Z,10.77
2022-09-22T01:12:37.063Z,10.78
2022-09-22T01:15:48.564Z,10.80
2022-09-22T01:19:36.464Z,10.78
2022-09-22T01:22:37.910Z,10.76
2022-09-22T01:25:55.084Z,10.69
2022-09-22T01:28:54.161Z,10.61
2022-09-22T01:31:34.002Z,10.50
2022-09-22T01:34:14.474Z,10.42
2022-09-22T01:37:05.600Z,10.21
2022-09-22T01:40:06.023Z,10.23
2022-09-22T01:43:08.679Z,10.20
2022-09-22T01:45:46.756Z,10.18
2022-09-22T01:48:46.365Z,10.17
2022-09-22T01:52:00.897Z,10.14
2022-09-22T01:54:55.603Z,10.12
2022-09-22T01:58:07.030Z,10.17
2022-09-22T02:00:42.083Z,10.22
2022-09-22T02:04:06.417Z,10.32
2022-09-22T02:06:50.544Z,10.36
2022-09-22T02:09:52.633Z,10.45
2022-09-22T02:12:28.388Z,10.40
2022-09-22T02:15:30.132Z,10.31
2022-09-22T02:19:06.264Z,10.34
2022-09-22T02:21:59.436Z,10.46
2022-09-22T02:24:44.300Z,10.52
2022-09-22T02:27:36.493Z,10.51
2022-09-22T02:30:18.235Z,10.41
2022-09-22T02:32:59.900Z,10.34
2022-09-22T02:35:33.418Z,10.33
2022-09-22T02:39:08.163Z,10.32
2022-09-22T02:42:27.175Z,10.24
2022-09-22T02:45:27.741Z,10.21
2022-09-22T02:48:23.097Z,10.19
2022-09-22T02:51:16.540Z,10.14
2022-09-22T02:53:50.398Z,10.15
2022-09-22T02:56:21.395Z,10.14
2022-09-22T02:58:49.833Z,10.08
2022-09-22T03:01:20.400Z,10.07
2022-09-22T03:04:00.410Z,10.03
2022-09-22T03:06:49.317Z,9.99
2022-09-22T03:09:23.061Z,9.98
2022-09-22T03:11:50.634Z,10.01
2022-09-22T03:14:21.125Z,9.98
2022-09-22T03:16:52.068Z,9.97
2022-09-22T03:19:19.673Z,9.99
2022-09-22T03:21:50.406Z,10.07
2022-09-22T03:24:20.925Z,10.08
2022-09-22T03:26:51.355Z,10.04
2022-09-22T03:29:22.307Z,9.99
2022-09-22T03:32:01.933Z,9.97
2022-09-22T03:34:32.937Z,9.91
2022-09-22T03:37:15.110Z,9.97
2022-09-22T03:39:52.119Z,10.02
2022-09-22T03:42:32.982Z,10.14
2022-09-22T03:45:16.839Z,10.24
2022-09-22T03:47:54.357Z,10.24
2022-09-22T03:50:25.261Z,10.27
2022-09-22T03:52:53.190Z,10.32
2022-09-22T03:55:25.435Z,10.37
2022-09-22T03:58:03.880Z,10.43
2022-09-22T04:00:34.591Z,10.54
2022-09-22T04:06:24.566Z,10.55
2022-09-22T04:08:56.065Z,10.44
2022-09-22T04:11:27.445Z,10.38
2022-09-22T04:14:04.994Z,10.34
2022-09-22T04:16:36.088Z,10.28
2022-09-22T04:19:05.798Z,10.27
2022-09-22T04:21:33.725Z,10.24
2022-09-22T04:24:07.640Z,10.19
2022-09-22T04:26:35.527Z,10.21
2022-09-22T04:29:03.148Z,10.30
2022-09-22T04:31:33.504Z,10.38
2022-09-22T04:34:25.884Z,10.42
2022-09-22T04:36:56.575Z,10.46
2022-09-22T04:39:33.364Z,10.42
2022-09-22T04:42:10.136Z,10.50
2022-09-22T04:44:47.603Z,10.52
2022-09-22T04:47:56.582Z,10.50
2022-09-22T04:50:28.688Z,10.44
2022-09-22T04:52:57.421Z,10.37
2022-09-22T04:55:26.525Z,10.42
2022-09-22T04:57:58.082Z,10.50
2022-09-22T05:00:47.140Z,10.57
2022-09-22T05:03:22.364Z,10.50
2022-09-22T05:05:51.815Z,10.51
2022-09-22T05:08:37.858Z,10.60
2022-09-22T05:11:17.238Z,10.71
2022-09-22T05:14:06.193Z,10.79
2022-09-22T05:16:37.227Z,10.82
2022-09-22T05:19:04.934Z,10.80
2022-09-22T05:21:36.005Z,10.72
2022-09-22T05:24:07.331Z,10.69
2022-09-22T05:26:38.160Z,10.64
2022-09-22T05:29:06.423Z,10.66
2022-09-22T05:31:51.701Z,10.73
2022-09-22T05:34:25.277Z,10.82
2022-09-22T05:37:08.139Z,10.88
2022-09-22T05:39:39.084Z,10.76
2022-09-22T05:42:48.039Z,10.73
2022-09-22T05:45:28.263Z,10.82
2022-09-22T05:47:59.883Z,10.89
2022-09-22T05:50:31.514Z,10.92
2022-09-22T05:56:08.557Z,11.02
2022-09-22T05:58:39.248Z,11.03
2022-09-22T06:01:10.185Z,10.96
2022-09-22T06:03:38.201Z,10.96
2022-09-22T06:06:09.240Z,11.07
2022-09-22T06:08:49.400Z,11.11
2022-09-22T06:11:17.046Z,11.19
2022-09-22T06:13:44.846Z,11.18
2022-09-22T06:16:19.525Z,11.15
2022-09-22T06:18:50.573Z,11.16
2022-09-22T06:21:18.922Z,11.01
2022-09-22T06:23:46.414Z,10.93
2022-09-22T06:26:20.100Z,10.92
2022-09-22T06:29:19.959Z,11.01
2022-09-22T06:31:58.194Z,11.02
2022-09-22T06:34:28.579Z,11.03
2022-09-22T06:37:09.482Z,11.12
2022-09-22T06:39:40.008Z,11.24
2022-09-22T06:42:20.171Z,11.34
2022-09-22T06:44:47.994Z,11.41
2022-09-22T06:47:19.272Z,11.48
2022-09-22T06:49:50.240Z,11.53
2022-09-22T06:52:21.087Z,11.57
2022-09-22T06:55:00.927Z,11.64
2022-09-22T06:57:59.734Z,11.68
2022-09-22T07:00:33.083Z,11.76
2022-09-22T07:03:24.474Z,11.83
2022-09-22T07:06:29.265Z,11.90
2022-09-22T07:09:01.541Z,11.98
2022-09-22T07:11:56.752Z,12.00
2022-09-22T07:14:29.744Z,12.05
2022-09-22T07:16:57.255Z,12.10
2022-09-22T07:19:25.009Z,12.15
2022-09-22T07:21:53.036Z,12.24
2022-09-22T07:24:20.530Z,12.29
2022-09-22T07:26:48.074Z,12.31
2022-09-22T07:29:16.849Z,12.31
2022-09-22T07:31:44.711Z,12.23
2022-09-22T07:34:13.058Z,12.24
2022-09-22T07:36:40.972Z,12.25
2022-09-22T07:39:11.198Z,12.32
2022-09-22T07:41:43.149Z,12.35
2022-09-22T07:44:34.435Z,12.43
2022-09-22T07:47:03.469Z,12.44
2022-09-22T07:49:31.692Z,12.50
2022-09-22T07:51:59.717Z,12.57
2022-09-22T07:54:28.228Z,12.67
2022-09-22T07:56:58.700Z,12.75
2022-09-22T07:59:27.587Z,12.78
2022-09-22T08:01:55.774Z,12.77
2022-09-22T08:04:24.452Z,12.66
2022-09-22T08:06:55.433Z,12.49
2022-09-22T08:09:25.338Z,12.48
2022-09-22T08:11:53.832Z,12.47
2022-09-22T08:14:23.251Z,12.45
2022-09-22T08:16:53.895Z,12.52
2022-09-22T08:19:24.193Z,12.56
2022-09-22T08:21:54.469Z,12.61
2022-09-22T08:24:23.682Z,12.70
2022-09-22T08:26:55.991Z,12.77
2022-09-22T08:29:24.761Z,12.81
2022-09-22T08:31:54.172Z,12.89
2022-09-22T08:34:22.553Z,12.93
2022-09-22T08:36:50.515Z,12.99
2022-09-22T08:39:18.954Z,13.13
2022-09-22T08:42:14.423Z,13.26
2022-09-22T08:45:27.165Z,13.35
2022-09-22T08:48:21.720Z,13.29
2022-09-22T08:51:12.524Z,13.34
2022-09-22T08:53:48.235Z,13.45
2022-09-22T08:56:32.272Z,13.55
2022-09-22T08:59:23.221Z,13.67
2022-09-22T09:02:28.469Z,13.78
2022-09-22T09:05:37.705Z,13.77
2022-09-22T09:08:34.911Z,13.75
2022-09-22T09:11:16.780Z,13.83
2022-09-22T09:14:30.545Z,13.90
2022-09-22T09:17:21.131Z,13.94
2022-09-22T09:20:03.377Z,13.86
2022-09-22T09:22:43.719Z,13.86
2022-09-22T09:25:42.087Z,13.91
2022-09-22T09:28:27.520Z,13.93
2022-09-22T09:31:11.079Z,13.79
2022-09-22T09:34:00.632Z,13.79
2022-09-22T09:36:37.912Z,13.89
2022-09-22T09:39:32.940Z,13.99
2022-09-22T09:42:08.863Z,14.00
2022-09-22T09:44:40.209Z,14.03
2022-09-22T09:47:23.998Z,14.08
2022-09-22T09:49:53.169Z,14.16
2022-09-22T09:52:21.322Z,14.27
2022-09-22T09:54:49.872Z,14.28
2022-09-22T09:57:19.265Z,14.33
2022-09-22T10:00:08.577Z,14.41
2022-09-22T10:02:57.241Z,14.49
2022-09-22T10:05:27.256Z,14.55
2022-09-22T10:08:03.137Z,14.70
2022-09-22T10:10:38.027Z,14.73
2022-09-22T10:13:05.518Z,14.80
2022-09-22T10:15:36.274Z,14.77
2022-09-22T10:18:24.333Z,14.88
2022-09-22T10:21:20.081Z,14.97
2022-09-22T10:24:00.330Z,15.00
2022-09-22T10:26:31.463Z,15.13
2022-09-22T10:29:20.950Z,15.25
2022-09-22T10:32:16.919Z,15.41
2022-09-22T10:34:51.469Z,15.50
2022-09-22T10:37:27.841Z,15.67
2022-09-22T10:40:03.543Z,15.84
2022-09-22T10:42:45.468Z,16.03
2022-09-22T10:45:19.439Z,16.15
2022-09-22T10:48:03.601Z,16.12
2022-09-22T10:50:51.213Z,16.10
2022-09-22T10:53:29.502Z,16.18
2022-09-22T10:56:27.999Z,16.22
2022-09-22T10:59:20.116Z,16.33
2022-09-22T11:02:15.523Z,16.50
2022-09-22T11:05:03.002Z,16.61
2022-09-22T11:08:14.107Z,16.70
2022-09-22T11:11:51.561Z,16.86
2022-09-22T11:15:03.923Z,16.97
2022-09-22T11:17:45.532Z,17.05
2022-09-22T11:20:32.376Z,17.04
2022-09-22T11:23:21.312Z,17.00
2022-09-22T11:26:08.025Z,17.02
2022-09-22T11:28:57.142Z,17.05
2022-09-22T11:31:44.188Z,17.06
2022-09-22T11:34:45.456Z,17.17
2022-09-22T11:37:44.472Z,17.39
2022-09-22T11:40:41.381Z,17.67
2022-09-22T11:43:38.881Z,17.74
2022-09-22T11:46:47.741Z,17.80
2022-09-22T11:49:48.492Z,17.99
2022-09-22T11:52:34.383Z,18.08
2022-09-22T11:55:13.119Z,18.16
2022-09-22T11:57:49.297Z,18.15
2022-09-22T12:00:23.212Z,18.15
2022-09-22T12:03:12.574Z,18.20
2022-09-22T12:05:58.633Z,18.19
2022-09-22T12:08:35.695Z,18.06
2022-09-22T12:11:06.894Z,17.93
2022-09-22T12:13:37.283Z,17.92
2022-09-22T12:16:30.993Z,17.92
2022-09-22T12:19:13.477Z,18.01
2022-09-22T12:22:08.611Z,18.16
2022-09-22T12:24:37.572Z,18.36
2022-09-22T12:27:20.348Z,18.58
2022-09-22T12:30:00.301Z,18.75
2022-09-22T12:32:50.571Z,18.87
2022-09-22T12:35:31.478Z,19.10
2022-09-22T12:38:02.461Z,19.41
2022-09-22T12:40:41.658Z,19.66
2022-09-22T12:43:21.213Z,19.87
2022-09-22T12:45:51.454Z,20.03
2022-09-22T12:48:27.492Z,20.23
2022-09-22T12:51:31.315Z,20.30
2022-09-22T12:54:23.673Z,20.48
2022-09-22T12:57:20.518Z,20.43
2022-09-22T13:00:13.805Z,20.20
2022-09-22T13:02:47.354Z,19.90
2022-09-22T13:05:36.839Z,19.71
2022-09-22T13:08:04.758Z,19.54
2022-09-22T13:10:32.260Z,19.29
2022-09-22T13:13:11.396Z,19.08
2022-09-22T13:15:51.101Z,18.88
2022-09-22T13:18:39.453Z,18.66
2022-09-22T13:21:13.310Z,18.40
2022-09-22T13:23:49.675Z,18.14
2022-09-22T13:26:34.575Z,17.92
2022-09-22T13:29:19.843Z,17.63
2022-09-22T13:31:55.546Z,17.36
2022-09-22T13:34:37.404Z,17.17
2022-09-22T13:37:34.685Z,16.98
2022-09-22T13:40:02.822Z,16.89
2022-09-22T13:42:32.787Z,16.87
2022-09-22T13:45:21.524Z,16.87
2022-09-22T13:47:50.652Z,16.84
2022-09-22T13:50:22.659Z,16.78
2022-09-22T13:52:52.329Z,16.79
2022-09-22T13:55:29.395Z,16.80
2022-09-22T13:57:59.294Z,16.82
2022-09-22T14:01:08.767Z,16.82
2022-09-22T14:03:37.676Z,16.74
2022-09-22T14:06:10.581Z,16.72
2022-09-22T14:08:38.658Z,16.64
2022-09-22T14:11:36.553Z,16.51
2022-09-22T14:14:06.924Z,16.42
2022-09-22T14:17:00.731Z,16.40
2022-09-22T14:19:49.099Z,16.40
2022-09-22T14:22:26.589Z,16.33
2022-09-22T14:25:00.965Z,16.39
2022-09-22T14:27:55.346Z,16.60
2022-09-22T14:30:32.800Z,16.97
2022-09-22T14:33:04.013Z,17.61
2022-09-22T14:35:37.416Z,18.08
2022-09-22T14:38:15.470Z,18.50
2022-09-22T14:40:54.323Z,18.71
2022-09-22T14:43:37.918Z,18.87
2022-09-22T14:46:33.948Z,18.93
2022-09-22T14:49:44.524Z,19.00
2022-09-22T14:52:32.761Z,19.03
2022-09-22T14:55:12.174Z,19.11
2022-09-22T14:57:46.484Z,19.25
2022-09-22T15:00:35.372Z,19.44
2022-09-22T15:03:28.189Z,19.48
2022-09-22T15:06:06.279Z,19.77
2022-09-22T15:08:34.421Z,20.02
2022-09-22T15:11:03.406Z,20.14
2022-09-22T15:13:45.778Z,20.31
2022-09-22T15:16:38.351Z,20.46
2022-09-22T15:19:11.024Z,20.55
2022-09-22T15:21:46.138Z,20.51
2022-09-22T15:24:27.047Z,20.43
2022-09-22T15:26:57.428Z,20.32
2022-09-22T15:29:25.168Z,20.33
2022-09-22T15:31:52.769Z,20.35
2022-09-22T15:34:20.676Z,20.15
2022-09-22T15:36:50.050Z,19.80
2022-09-22T15:39:22.464Z,19.42
2022-09-22T15:41:52.145Z,19.10
2022-09-22T15:44:19.853Z,18.72
2022-09-22T15:46:54.409Z,18.28
2022-09-22T15:49:26.485Z,17.89
2022-09-22T15:51:56.674Z,17.58
2022-09-22T15:54:26.167Z,17.36
2022-09-22T15:56:56.338Z,17.13
2022-09-22T15:59:28.541Z,16.97
2022-09-22T16:01:57.182Z,16.75
2022-09-22T16:04:30.071Z,16.51
2022-09-22T16:07:04.045Z,16.22
2022-09-22T16:09:31.795Z,16.01
2022-09-22T16:11:59.755Z,15.81
2022-09-22T16:14:27.322Z,15.67
2022-09-22T16:16:54.954Z,15.57
2022-09-22T16:19:22.872Z,15.46
2022-09-22T16:21:54.236Z,15.31
2022-09-22T16:24:22.693Z,15.16
2022-09-22T16:26:51.947Z,15.02
2022-09-22T16:29:19.595Z,14.91
2022-09-22T16:31:47.252Z,14.67
2022-09-22T16:34:15.065Z,14.50
2022-09-22T16:36:44.587Z,14.35
2022-09-22T16:39:12.030Z,14.29
2022-09-22T16:41:47.567Z,14.25
2022-09-22T16:44:16.124Z,14.24
2022-09-22T16:46:44.029Z,14.22
2022-09-22T16:49:16.358Z,14.19
2022-09-22T16:51:49.818Z,14.16
2022-09-22T16:54:19.675Z,14.03
2022-09-22T16:56:50.551Z,13.89
2022-09-22T16:59:22.810Z,13.74
2022-09-22T17:01:51.255Z,13.57
2022-09-22T17:04:19.564Z,13.44
2022-09-22T17:06:48.252Z,13.37
2022-09-22T17:09:17.238Z,13.31
2022-09-22T17:11:49.210Z,13.32
2022-09-22T17:14:24.365Z,13.24
2022-09-22T17:16:56.664Z,13.25
2022-09-22T17:19:27.849Z,13.27
2022-09-22T17:21:56.759Z,13.21
2022-09-22T17:24:27.255Z,13.21
2022-09-22T17:26:58.843Z,13.17
2022-09-22T17:29:31.501Z,13.16
2022-09-22T17:32:08.402Z,13.14
2022-09-22T17:34:38.301Z,13.16
2022-09-22T17:37:06.320Z,13.22
2022-09-22T17:39:33.835Z,13.29
2022-09-22T17:42:01.766Z,13.34
2022-09-22T17:44:33.573Z,13.35
2022-09-22T17:47:20.051Z,13.37
2022-09-22T17:50:06.670Z,13.31
2022-09-22T17:52:52.959Z,13.21
2022-09-22T17:55:25.329Z,13.00
2022-09-22T17:57:54.524Z,12.93
2022-09-22T18:00:24.610Z,12.88
2022-09-22T18:02:55.065Z,12.86
2022-09-22T18:05:26.679Z,12.86
2022-09-22T18:07:58.588Z,12.84
2022-09-22T18:10:32.338Z,12.77
2022-09-22T18:13:02.053Z,12.71
2022-09-22T18:15:30.470Z,12.69
2022-09-22T18:17:58.299Z,12.66
2022-09-22T18:20:27.374Z,12.63
2022-09-22T18:22:57.897Z,12.64
2022-09-22T18:25:25.725Z,12.53
2022-09-22T18:27:54.595Z,12.31
2022-09-22T18:30:22.280Z,12.18
2022-09-22T18:32:49.914Z,12.10
2022-09-22T18:35:18.585Z,12.05
2022-09-22T18:37:46.430Z,11.94
2022-09-22T18:40:14.043Z,11.93
2022-09-22T18:42:43.565Z,11.88
2022-09-22T18:45:12.561Z,11.92
2022-09-22T18:47:43.284Z,11.85
2022-09-22T18:50:12.407Z,11.94
2022-09-22T18:52:43.108Z,12.14
2022-09-22T18:55:14.152Z,12.37
2022-09-22T18:57:42.669Z,12.51
2022-09-22T19:00:13.796Z,12.65
2022-09-22T19:02:41.839Z,12.70
2022-09-22T19:05:10.223Z,12.72
2022-09-22T19:07:42.959Z,12.77
2022-09-22T19:10:22.030Z,12.81
2022-09-22T19:12:50.254Z,12.78
2022-09-22T19:15:19.577Z,12.79
2022-09-22T19:17:49.531Z,12.77
2022-09-22T19:20:23.828Z,12.78
2022-09-22T19:22:52.969Z,12.78
2022-09-22T19:25:22.221Z,12.78
2022-09-22T19:27:52.598Z,12.77
2022-09-22T19:30:24.795Z,12.78
2022-09-22T19:32:54.982Z,12.78
2022-09-22T19:35:25.090Z,12.78
2022-09-22T19:37:53.662Z,12.85
2022-09-22T19:40:25.126Z,12.81
2022-09-22T19:42:54.525Z,12.82
2022-09-22T19:45:24.056Z,12.83
2022-09-22T19:47:52.941Z,12.84
2022-09-22T19:50:20.820Z,12.81
2022-09-22T19:52:48.654Z,12.83
2022-09-22T19:55:20.757Z,12.84
2022-09-22T19:57:49.974Z,12.85
2022-09-22T20:00:18.243Z,12.85
2022-09-22T20:02:46.192Z,12.85
2022-09-22T20:05:21.466Z,12.87
2022-09-22T20:07:49.670Z,12.86
2022-09-22T20:10:21.162Z,12.83
2022-09-22T20:12:50.343Z,12.82
2022-09-22T20:15:18.944Z,12.77
2022-09-22T20:17:47.820Z,12.71
2022-09-22T20:20:23.664Z,12.70
2022-09-22T20:23:04.151Z,12.68
2022-09-22T20:25:33.207Z,12.60
2022-09-22T20:28:01.291Z,12.54
2022-09-22T20:30:29.039Z,12.51
2022-09-22T20:32:56.594Z,12.51
2022-09-22T20:35:24.461Z,12.46
2022-09-22T20:37:52.345Z,12.44
2022-09-22T20:40:21.614Z,12.40
2022-09-22T20:42:49.957Z,12.34
2022-09-22T20:45:21.030Z,12.25
2022-09-22T20:47:49.734Z,12.22
2022-09-22T20:50:17.611Z,12.19
2022-09-22T20:52:45.195Z,12.18
2022-09-22T20:55:12.732Z,12.17
2022-09-22T20:57:41.227Z,12.21
2022-09-22T21:00:10.009Z,12.20
2022-09-22T21:02:38.509Z,12.23
2022-09-22T21:05:06.581Z,12.24
2022-09-22T21:07:34.167Z,12.29
2022-09-22T21:10:20.474Z,12.31
2022-09-22T21:12:50.739Z,12.37
2022-09-22T21:15:19.929Z,12.41
2022-09-22T21:17:49.905Z,12.41
2022-09-22T21:20:17.769Z,12.41
2022-09-22T21:22:45.371Z,12.40
2022-09-22T21:25:12.955Z,12.29
2022-09-22T21:27:40.855Z,12.25
2022-09-22T21:30:08.904Z,12.16
2022-09-22T21:32:37.587Z,12.04
2022-09-22T21:35:06.228Z,11.98
2022-09-22T21:37:33.827Z,11.88
2022-09-22T21:40:01.641Z,11.86
2022-09-22T21:42:29.569Z,11.84
2022-09-22T21:44:57.094Z,11.73
2022-09-22T21:47:24.743Z,11.71
2022-09-22T21:49:52.514Z,11.72
2022-09-22T21:52:20.069Z,11.67
2022-09-22T21:54:47.544Z,11.71
2022-09-22T21:57:15.397Z,11.70
2022-09-22T21:59:42.901Z,11.75
2022-09-22T22:02:10.414Z,11.71
2022-09-22T22:04:38.242Z,11.72
2022-09-22T22:07:05.800Z,11.73
2022-09-22T22:09:33.475Z,11.73
2022-09-22T22:12:01.465Z,11.72
2022-09-22T22:14:34.976Z,11.74
2022-09-22T22:17:02.878Z,11.69
2022-09-22T22:19:31.114Z,11.70
2022-09-22T22:21:58.811Z,11.66
2022-09-22T22:24:26.649Z,11.66
2022-09-22T22:27:07.308Z,11.70
2022-09-22T22:29:38.637Z,11.72
2022-09-22T22:32:09.496Z,11.70
2022-09-22T22:34:37.749Z,11.75
2022-09-22T22:37:08.900Z,11.79
2022-09-22T22:39:37.399Z,11.83
2022-09-22T22:42:05.833Z,11.88
2022-09-22T22:44:35.243Z,11.90
2022-09-22T22:47:02.796Z,11.90
2022-09-22T22:49:30.642Z,11.95
2022-09-22T22:51:58.234Z,12.01
2022-09-22T22:54:26.172Z,12.05
2022-09-22T22:56:53.959Z,12.07
2022-09-22T22:59:21.429Z,12.09
2022-09-22T23:01:49.263Z,12.09
2022-09-22T23:04:17.128Z,12.11
2022-09-22T23:06:45.018Z,12.08
2022-09-22T23:09:16.204Z,12.07
2022-09-22T23:11:46.366Z,12.06
2022-09-22T23:14:16.037Z,12.05
2022-09-22T23:16:46.997Z,12.04
2022-09-22T23:19:17.922Z,12.05
2022-09-22T23:21:46.641Z,12.03
2022-09-22T23:24:19.112Z,12.02
2022-09-22T23:26:47.363Z,12.02
2022-09-22T23:29:15.225Z,11.97
2022-09-22T23:31:42.816Z,11.96
2022-09-22T23:34:10.542Z,11.90
2022-09-22T23:36:39.634Z,11.88
2022-09-22T23:39:07.269Z,11.88
2022-09-22T23:41:36.807Z,11.86
2022-09-22T23:44:06.846Z,11.84
2022-09-22T23:46:34.909Z,11.84
2022-09-22T23:49:02.782Z,11.83
2022-09-22T23:51:31.171Z,11.83
2022-09-22T23:53:59.118Z,11.85
2022-09-22T23:56:27.039Z,11.89
2022-09-22T23:58:54.629Z,11.90
